Wilcox, Pennsylvania
Current Conditions -  °F | °C
As of 5:38 PM on Tuesday 21 Oct 2014 (Local Time) from KBFD Reporting Station
Light Rain Light Rain  
Wind Chill: 47°   Ceiling: 1400
Heat Index: 49°   Visibility: 10mi
Dew Point: 44°   Wind: 5mph
Humidity: 83%   Direction: 330°NNW
Pressure: 29.9"   Gusts: NA
Location:  41.58°N, 78.69°W
Report Text: KBFD 212138Z AUTO 33004KT 10SM -RA BKN014 BKN022 OVC029 09/07 A2990 RMK AO2 RAB32 P0000 T00940067
Loading
Personal Weather Stations






























Interactive Weather Map
Tropical Storm Tracking
New forecast layout! Learn more

10-Day Weather Forecast

Advertisements
Track Severe Weather on mobile